CSY5 weather

Valleyfield (Ciment Deval Inc) Heliport
Valleyfield, Quebec, Canada

Public forecast

Using degrees Celsius for public forecast. Weather courtesy of forecast.io.

Closest aviation weather report (METAR) to Valleyfield (Ciment Deval Inc) Heliport

Closest report is Montreal / Pierre Elliott Trudeau International Airport, 21.2 nm (39.3 km) NE. Retrieved 2020/06/05 21:00 UTC (1 hour ago):

CYUL 052100Z 27010G19KT 220V290 30SM FEW050 FEW090 SCT250 30/11 A2973 RMK SC1AC1CI4 SC TR AC TR SLP070 DENSITY ALT 2100FT

Closest aviation forecast (TAF) to Valleyfield (Ciment Deval Inc) Heliport

Closest forecast is Montreal / Pierre Elliott Trudeau International Airport, 21.2 nm (39.3 km) NE. Retrieved 2020/06/05 21:42 UTC (27 minutes ago):

TAF CYUL 052038Z 0521/0618 24012G22KT P6SM BKN240 FM060300 25010KT P6SM -SHRA BKN070 PROB30 0603/0607 VRB15G25KT 2SM +TSRA BKN015 OVC050CB FM060700 24010G20KT 4SM -SHRA BR OVC015 PROB30 0607/0610 1SM BR BKN004 FM061000 24010KT 3/4SM -SHRA -DZ BR VV004 FM061300 27015KT P6SM BKN015 FM061700 27015G25KT P6SM -SHRA BKN050 RMK NXT FCST BY 060000Z